Hovedside
METAR-TAF:

METAR-TAF

Lufthavner :

Berlevåg lufthavn

Berlevåg, Norge

breddegrad: 70-52N, lengdegrad: 029-02E, høyde over havet: 1 m

Gjeldene værobservasjon

Denne rapporten ble laget for 1 time og 4 minutter siden, klokken 09:50 UTC
Vind 14 kt fra Sørvest
Temperatur 12°C
Luftfuktighet 67%
Trykk 984 hPa
Sikt 10 km eller mer
Få skyer i en høyde av 3000 ft
Spredte skyer i en høyde av 5000 ft
Brutte skyer i en høyde av 9000 ft

METAR: ENBV 210950Z 23014KT 9999 FEW030 SCT050 BKN090 12/06 Q0984

Tid: 12:54 (10:54 UTC)

Varsel

Denne rapporten ble laget for 2 timer og 54 minutter siden, klokken 08:00 UTC
Varsel gyldig fra 21. klokken 09 UTC til 21. klokken 18 UTC
Vind 15 kt fra Sørvest
Sikt 10 km eller mer
Få skyer i en høyde av 4000 ft

TAF: ENBV 210800Z 2109/2118 23015KT 9999 FEW040

Værobservasjoner og værvarsel for over 4000 flyplasser (METAR- og TAF-rapporter).

Tilgjengelige stasjoner er representert av de røde og gule prikkene på kartet.

Hold musepekeren over prikken for å se navnet på stasjonen.

Klikk så for å se værobservasjoner og -varsler.

For å forandre kartet kan du klikke på den grønne knappen med svart kryss for å zoome inn, på den grønne knappen med strek for å zoome ut, eller på de grønne pilene for å se tilstøtende kart.


METAR-TAF: